createdAt,value
2023-03-22T00:00:39.555Z,21.87
2023-03-22T00:03:42.659Z,21.86
2023-03-22T00:06:45.762Z,21.86
2023-03-22T00:09:48.706Z,21.87
2023-03-22T00:12:53.130Z,21.87
2023-03-22T00:15:57.728Z,21.87
2023-03-22T00:19:00.593Z,21.87
2023-03-22T00:22:06.283Z,21.86
2023-03-22T00:25:09.571Z,21.86
2023-03-22T00:28:14.610Z,21.85
2023-03-22T00:31:17.711Z,21.84
2023-03-22T00:34:20.662Z,21.83
2023-03-22T00:37:23.512Z,21.82
2023-03-22T00:40:26.375Z,21.79
2023-03-22T00:43:30.619Z,21.78
2023-03-22T00:46:33.552Z,21.77
2023-03-22T00:49:37.590Z,21.76
2023-03-22T00:52:40.496Z,21.74
2023-03-22T00:55:43.824Z,21.74
2023-03-22T00:58:48.266Z,21.74
2023-03-22T01:01:51.214Z,21.74
2023-03-22T01:04:54.195Z,21.73
2023-03-22T01:07:58.606Z,21.72
2023-03-22T01:11:02.047Z,21.71
2023-03-22T01:14:06.229Z,21.69
2023-03-22T01:17:09.379Z,21.68
2023-03-22T01:20:13.758Z,21.67
2023-03-22T01:23:16.810Z,21.66
2023-03-22T01:26:19.691Z,21.65
2023-03-22T01:29:24.061Z,21.64
2023-03-22T01:32:27.039Z,21.64
2023-03-22T01:35:30.764Z,21.64
2023-03-22T01:38:33.896Z,21.64
2023-03-22T01:41:38.614Z,21.64
2023-03-22T01:45:21.342Z,21.63
2023-03-22T01:48:29.320Z,21.61
2023-03-22T01:51:32.339Z,21.60
2023-03-22T01:54:53.811Z,21.59
2023-03-22T01:58:08.703Z,21.58
2023-03-22T02:01:27.309Z,21.57
2023-03-22T02:04:36.761Z,21.56
2023-03-22T02:07:43.177Z,21.56
2023-03-22T02:10:46.821Z,21.55
2023-03-22T02:14:15.625Z,21.55
2023-03-22T02:17:51.178Z,21.55
2023-03-22T02:21:32.073Z,21.55
2023-03-22T02:25:20.629Z,21.55
2023-03-22T02:28:34.659Z,21.54
2023-03-22T02:31:51.750Z,21.53
2023-03-22T02:35:28.844Z,21.52
2023-03-22T02:39:01.513Z,21.52
2023-03-22T02:42:17.479Z,21.51
2023-03-22T02:45:29.155Z,21.50
2023-03-22T02:48:37.973Z,21.50
2023-03-22T02:51:45.269Z,21.48
2023-03-22T02:54:53.608Z,21.48
2023-03-22T02:57:59.242Z,21.48
2023-03-22T03:01:06.775Z,21.46
2023-03-22T03:04:15.196Z,21.47
2023-03-22T03:07:22.825Z,21.46
2023-03-22T03:10:28.723Z,21.47
2023-03-22T03:13:31.965Z,21.46
2023-03-22T03:16:36.673Z,21.45
2023-03-22T03:19:46.324Z,21.45
2023-03-22T03:22:59.230Z,21.45
2023-03-22T03:26:08.270Z,21.44
2023-03-22T03:29:18.699Z,21.44
2023-03-22T03:32:27.786Z,21.43
2023-03-22T03:35:37.709Z,21.45
2023-03-22T03:38:45.179Z,21.44
2023-03-22T03:41:52.513Z,21.44
2023-03-22T03:44:57.305Z,21.45
2023-03-22T03:48:05.112Z,21.46
2023-03-22T03:51:08.919Z,21.47
2023-03-22T03:54:12.083Z,21.48
2023-03-22T03:57:17.492Z,21.49
2023-03-22T04:00:20.932Z,21.49
2023-03-22T04:03:50.674Z,21.50
2023-03-22T04:07:07.568Z,21.50
2023-03-22T04:10:13.129Z,21.51
2023-03-22T04:13:18.319Z,21.51
2023-03-22T04:16:21.416Z,21.51
2023-03-22T04:19:25.056Z,21.52
2023-03-22T04:22:28.155Z,21.53
2023-03-22T04:25:33.913Z,21.53
2023-03-22T04:28:45.409Z,21.53
2023-03-22T04:31:48.847Z,21.55
2023-03-22T04:35:01.666Z,21.54
2023-03-22T04:38:04.914Z,21.55
2023-03-22T04:41:09.372Z,21.54
2023-03-22T04:44:18.802Z,21.54
2023-03-22T04:47:26.096Z,21.54
2023-03-22T04:50:29.249Z,21.53
2023-03-22T04:53:38.976Z,21.53
2023-03-22T04:56:43.058Z,21.53
2023-03-22T04:59:47.567Z,21.53
2023-03-22T05:02:50.783Z,21.53
2023-03-22T05:06:03.466Z,21.53
2023-03-22T05:09:16.576Z,21.53
2023-03-22T05:12:19.832Z,21.54
2023-03-22T05:15:44.471Z,21.55
2023-03-22T05:18:54.340Z,21.54
2023-03-22T05:22:01.848Z,21.54
2023-03-22T05:25:23.039Z,21.53
2023-03-22T05:28:28.487Z,21.53
2023-03-22T05:31:53.079Z,21.52
2023-03-22T05:34:56.874Z,21.52
2023-03-22T05:38:11.777Z,21.51
2023-03-22T05:41:20.384Z,21.51
2023-03-22T05:44:23.624Z,21.51
2023-03-22T05:47:43.819Z,21.51
2023-03-22T05:50:50.177Z,21.52
2023-03-22T05:53:54.533Z,21.51
2023-03-22T05:57:01.862Z,21.51
2023-03-22T06:00:10.439Z,21.52
2023-03-22T06:03:18.303Z,21.52
2023-03-22T06:06:29.282Z,21.52
2023-03-22T06:09:52.555Z,21.52
2023-03-22T06:12:58.956Z,21.52
2023-03-22T06:16:07.143Z,21.52
2023-03-22T06:19:11.539Z,21.51
2023-03-22T06:22:14.851Z,21.51
2023-03-22T06:25:19.079Z,21.51
2023-03-22T06:28:23.281Z,21.53
2023-03-22T06:31:29.600Z,21.53
2023-03-22T06:34:40.480Z,21.54
2023-03-22T06:37:44.974Z,21.57
2023-03-22T06:40:47.958Z,21.56
2023-03-22T06:43:50.902Z,21.57
2023-03-22T06:47:11.975Z,21.56
2023-03-22T06:50:22.452Z,21.57
2023-03-22T06:53:46.397Z,21.56
2023-03-22T06:56:49.612Z,21.56
2023-03-22T06:59:52.801Z,21.55
2023-03-22T07:02:55.791Z,21.54
2023-03-22T07:06:12.577Z,21.54
2023-03-22T07:09:19.434Z,21.53
2023-03-22T07:12:24.980Z,21.54
2023-03-22T07:15:28.630Z,21.54
2023-03-22T07:18:38.572Z,21.55
2023-03-22T07:21:42.894Z,21.55
2023-03-22T07:24:56.702Z,21.56
2023-03-22T07:28:02.061Z,21.57
2023-03-22T07:31:09.965Z,21.58
2023-03-22T07:34:22.198Z,21.56
2023-03-22T07:37:38.150Z,21.58
2023-03-22T07:40:46.711Z,21.56
2023-03-22T07:43:55.406Z,21.56
2023-03-22T07:46:59.834Z,21.56
2023-03-22T07:50:11.790Z,21.56
2023-03-22T07:53:16.272Z,21.56
2023-03-22T07:56:21.037Z,21.56
2023-03-22T07:59:24.973Z,21.59
2023-03-22T08:02:28.206Z,21.59
2023-03-22T08:05:33.573Z,21.60
2023-03-22T08:08:40.170Z,21.61
2023-03-22T08:11:43.152Z,21.61
2023-03-22T08:14:50.511Z,21.62
2023-03-22T08:17:59.097Z,21.61
2023-03-22T08:21:10.559Z,21.60
2023-03-22T08:24:16.355Z,21.61
2023-03-22T08:27:37.938Z,21.60
2023-03-22T08:30:41.403Z,21.59
2023-03-22T08:33:45.153Z,21.60
2023-03-22T08:36:49.043Z,21.61
2023-03-22T08:39:53.398Z,21.60
2023-03-22T08:42:56.352Z,21.61
2023-03-22T08:45:59.771Z,21.62
2023-03-22T08:49:03.620Z,21.63
2023-03-22T08:52:14.440Z,21.64
2023-03-22T08:55:35.408Z,21.65
2023-03-22T08:58:48.013Z,21.62
2023-03-22T09:02:03.864Z,21.58
2023-03-22T09:05:08.102Z,21.56
2023-03-22T09:08:18.443Z,21.56
2023-03-22T09:11:25.561Z,21.56
2023-03-22T09:14:28.722Z,21.57
2023-03-22T09:17:31.818Z,21.58
2023-03-22T09:20:35.053Z,21.58
2023-03-22T09:23:40.203Z,21.58
2023-03-22T09:26:46.030Z,21.60
2023-03-22T09:29:53.046Z,21.62
2023-03-22T09:32:56.179Z,21.63
2023-03-22T09:35:59.646Z,21.64
2023-03-22T09:39:06.676Z,21.66
2023-03-22T09:42:26.674Z,21.66
2023-03-22T09:45:38.556Z,21.66
2023-03-22T09:48:44.242Z,21.66
2023-03-22T09:51:48.732Z,21.67
2023-03-22T09:54:53.240Z,21.68
2023-03-22T09:58:06.256Z,21.67
2023-03-22T10:01:20.727Z,21.67
2023-03-22T10:04:41.653Z,21.69
2023-03-22T10:08:00.558Z,21.69
2023-03-22T10:11:03.885Z,21.70
2023-03-22T10:14:23.534Z,21.71
2023-03-22T10:17:29.217Z,21.72
2023-03-22T10:20:40.493Z,21.72
2023-03-22T10:23:48.536Z,21.73
2023-03-22T10:26:52.945Z,21.73
2023-03-22T10:30:02.399Z,21.72
2023-03-22T10:33:13.594Z,21.72
2023-03-22T10:36:18.377Z,21.72
2023-03-22T10:39:30.629Z,21.71
2023-03-22T10:42:37.777Z,21.72
2023-03-22T10:45:43.460Z,21.72
2023-03-22T10:48:49.061Z,21.72
2023-03-22T10:51:56.685Z,21.74
2023-03-22T10:55:03.686Z,21.74
2023-03-22T10:58:14.867Z,21.75
2023-03-22T11:01:27.371Z,21.76
2023-03-22T11:04:33.436Z,21.75
2023-03-22T11:07:38.759Z,21.75
2023-03-22T11:10:41.794Z,21.76
2023-03-22T11:13:50.490Z,21.76
2023-03-22T11:16:58.848Z,21.76
2023-03-22T11:20:07.824Z,21.76
2023-03-22T11:23:13.986Z,21.76
2023-03-22T11:26:28.210Z,21.76
2023-03-22T11:29:41.141Z,21.76
2023-03-22T11:32:45.500Z,21.77
2023-03-22T11:35:54.829Z,21.78
2023-03-22T11:38:59.948Z,21.78
2023-03-22T11:42:06.697Z,21.78
2023-03-22T11:45:15.913Z,21.79
2023-03-22T11:48:24.147Z,21.78
2023-03-22T11:51:30.950Z,21.79
2023-03-22T11:54:38.101Z,21.79
2023-03-22T11:57:41.082Z,21.80
2023-03-22T12:00:44.144Z,21.78
2023-03-22T12:03:55.967Z,21.79
2023-03-22T12:07:01.407Z,21.79
2023-03-22T12:10:07.914Z,21.79
2023-03-22T12:13:18.979Z,21.78
2023-03-22T12:16:25.809Z,21.78
2023-03-22T12:19:45.533Z,21.79
2023-03-22T12:22:52.748Z,21.80
2023-03-22T12:26:01.304Z,21.80
2023-03-22T12:29:08.283Z,21.80
2023-03-22T12:32:18.857Z,21.80
2023-03-22T12:35:26.426Z,21.81
2023-03-22T12:38:39.655Z,21.81
2023-03-22T12:41:46.939Z,21.82
2023-03-22T12:45:02.627Z,21.82
2023-03-22T12:48:15.006Z,21.82
2023-03-22T12:51:19.572Z,21.82
2023-03-22T12:54:25.183Z,21.83
2023-03-22T12:57:28.801Z,21.84
2023-03-22T13:00:37.794Z,21.86
2023-03-22T13:03:47.327Z,21.86
2023-03-22T13:07:08.693Z,21.88
2023-03-22T13:10:48.759Z,21.87
2023-03-22T13:13:51.750Z,21.89
2023-03-22T13:17:00.248Z,21.88
2023-03-22T13:20:25.644Z,21.88
2023-03-22T13:23:30.023Z,21.88
2023-03-22T13:26:38.276Z,21.89
2023-03-22T13:29:41.930Z,21.88
2023-03-22T13:32:54.604Z,21.89
2023-03-22T13:36:00.213Z,21.90
2023-03-22T13:39:12.329Z,21.91
2023-03-22T13:42:21.161Z,21.92
2023-03-22T13:45:32.406Z,21.92
2023-03-22T13:48:52.258Z,21.91
2023-03-22T13:51:58.347Z,21.92
2023-03-22T13:55:02.934Z,21.91
2023-03-22T13:58:10.090Z,21.90
2023-03-22T14:01:17.257Z,21.89
2023-03-22T14:04:26.765Z,21.89
2023-03-22T14:07:33.924Z,21.88
2023-03-22T14:10:44.380Z,21.88
2023-03-22T14:13:52.419Z,21.88
2023-03-22T14:17:02.823Z,21.88
2023-03-22T14:20:10.522Z,21.89
